Terminal Aerodrome Forecast
Issued by NWS Twin Cities, MN

Home | Current Version | Previous Version | Text Only | Print | Product List | Glossary On
Versions: 1 2 3 4 5 6 7 8 9 10 11 12 13 14 15
000
FTUS43 KMPX 241121
TAFEAU
TAF
KEAU 241121Z 2412/2512 24013KT P6SM -SN SCT025 OVC035
      TEMPO 2412/2415 2SM -SN OVC025
     FM241600 29013G21KT P6SM BKN025 OVC035
     FM241800 30016G25KT P6SM BKN035
     FM250100 31010KT P6SM FEW035 BKN150
     FM250900 34003KT P6SM SCT250=

USA.gov is the U.S. government's official web portal to all federal, state and local government web resources and services.